JBU280 ZSPD-ZSOF
Flight info
| Callsign | JBU280 |
|---|---|
| Flight time | N/A |
| Altitude | 15700 |
| Route | POMOK G330 UNTAN G345 OLRIS R343 MADUK MAD01A |
| Aircraft | A320/M-SDE3FGHIRWY/LB1 |
Departure
| Time | N/A |
|---|---|
| Airport | Shanghai Pudong International Airport (ZSPD) |
Arrival
| Time | 2026-04-24 07:14 |
|---|---|
| Airport | Hefei Xinqiao International Airport (ZSOF) |
| Time | Latitude | Longitude | Altitude | Speed | Heading |
|---|---|---|---|---|---|
| 2026-04-24 06:51 | 31.69157 | 118.31167 | 15790 ft | 414 kts | 279° |
| 2026-04-24 06:51 | 31.69590 | 118.27789 | 15785 ft | 414 kts | 279° |
| 2026-04-24 06:51 | 31.70018 | 118.24447 | 15789 ft | 414 kts | 279° |
| 2026-04-24 06:51 | 31.70446 | 118.21101 | 15791 ft | 414 kts | 279° |
| 2026-04-24 06:52 | 31.70874 | 118.17754 | 15791 ft | 414 kts | 279° |
| 2026-04-24 06:52 | 31.71304 | 118.14411 | 15792 ft | 414 kts | 279° |
| 2026-04-24 06:52 | 31.71516 | 118.11034 | 15790 ft | 416 kts | 270° |
| 2026-04-24 06:52 | 31.71225 | 118.07657 | 15792 ft | 417 kts | 261° |
| 2026-04-24 06:53 | 31.70557 | 118.04332 | 15792 ft | 418 kts | 258° |
| 2026-04-24 06:53 | 31.69868 | 118.01020 | 15795 ft | 418 kts | 258° |
| 2026-04-24 06:53 | 31.69181 | 117.97703 | 15792 ft | 418 kts | 258° |
| 2026-04-24 06:53 | 31.68501 | 117.94393 | 15797 ft | 418 kts | 258° |
| 2026-04-24 06:54 | 31.67820 | 117.91078 | 15795 ft | 418 kts | 258° |
| 2026-04-24 06:54 | 31.67138 | 117.87761 | 15792 ft | 417 kts | 258° |
| 2026-04-24 06:54 | 31.66455 | 117.84448 | 15794 ft | 417 kts | 258° |
| 2026-04-24 06:54 | 31.65769 | 117.81137 | 15794 ft | 417 kts | 258° |
| 2026-04-24 06:55 | 31.65092 | 117.77877 | 15796 ft | 417 kts | 258° |
| 2026-04-24 06:55 | 31.64404 | 117.74572 | 15794 ft | 417 kts | 258° |
| 2026-04-24 06:55 | 31.63714 | 117.71262 | 15792 ft | 417 kts | 258° |
| 2026-04-24 06:55 | 31.63024 | 117.67956 | 15792 ft | 417 kts | 258° |
| 2026-04-24 06:56 | 31.62342 | 117.64650 | 15787 ft | 417 kts | 260° |
| 2026-04-24 06:56 | 31.62022 | 117.61282 | 15786 ft | 415 kts | 271° |
| 2026-04-24 06:56 | 31.62275 | 117.57916 | 15790 ft | 413 kts | 282° |
| 2026-04-24 06:56 | 31.63081 | 117.54696 | 15789 ft | 412 kts | 292° |
| 2026-04-24 06:57 | 31.64397 | 117.51721 | 15794 ft | 411 kts | 303° |
| 2026-04-24 06:57 | 31.66046 | 117.48986 | 15795 ft | 411 kts | 306° |
| 2026-04-24 06:57 | 31.67717 | 117.46258 | 15792 ft | 411 kts | 306° |
| 2026-04-24 06:57 | 31.69384 | 117.43533 | 15783 ft | 411 kts | 306° |
| 2026-04-24 06:58 | 31.71047 | 117.40803 | 15761 ft | 406 kts | 306° |
| 2026-04-24 06:58 | 31.72680 | 117.38114 | 15014 ft | 405 kts | 306° |
| 2026-04-24 06:58 | 31.74303 | 117.35435 | 14435 ft | 400 kts | 306° |
| 2026-04-24 06:58 | 31.75912 | 117.32782 | 13859 ft | 396 kts | 306° |
| 2026-04-24 06:59 | 31.77504 | 117.30162 | 13255 ft | 392 kts | 306° |
| 2026-04-24 06:59 | 31.79067 | 117.27606 | 12634 ft | 388 kts | 306° |
| 2026-04-24 06:59 | 31.80638 | 117.25050 | 12004 ft | 383 kts | 307° |
| 2026-04-24 06:59 | 31.82197 | 117.22524 | 11357 ft | 380 kts | 307° |
| 2026-04-24 07:00 | 31.83946 | 117.20257 | 11070 ft | 367 kts | 319° |
| 2026-04-24 07:00 | 31.85940 | 117.18498 | 10947 ft | 350 kts | 329° |
| 2026-04-24 07:00 | 31.87997 | 117.17095 | 10821 ft | 335 kts | 330° |
| 2026-04-24 07:00 | 31.89972 | 117.15757 | 10698 ft | 321 kts | 330° |
| 2026-04-24 07:01 | 31.91873 | 117.14472 | 10577 ft | 309 kts | 330° |
| 2026-04-24 07:01 | 31.93703 | 117.13234 | 10457 ft | 298 kts | 330° |
| 2026-04-24 07:01 | 31.95472 | 117.12036 | 10234 ft | 291 kts | 330° |
| 2026-04-24 07:01 | 31.97207 | 117.10861 | 10146 ft | 286 kts | 330° |
| 2026-04-24 07:02 | 31.98936 | 117.09690 | 10081 ft | 286 kts | 330° |
| 2026-04-24 07:02 | 32.00674 | 117.08516 | 9656 ft | 292 kts | 330° |
| 2026-04-24 07:02 | 32.02424 | 117.07333 | 9369 ft | 286 kts | 330° |
| 2026-04-24 07:02 | 32.04134 | 117.06177 | 8796 ft | 282 kts | 330° |
| 2026-04-24 07:03 | 32.05828 | 117.05031 | 8101 ft | 281 kts | 330° |
| 2026-04-24 07:03 | 32.07524 | 117.03885 | 7424 ft | 280 kts | 330° |
| 2026-04-24 07:03 | 32.09215 | 117.02743 | 6740 ft | 280 kts | 331° |
| 2026-04-24 07:03 | 32.10898 | 117.01603 | 6067 ft | 279 kts | 330° |
| 2026-04-24 07:04 | 32.12573 | 117.00464 | 5398 ft | 276 kts | 330° |
| 2026-04-24 07:04 | 32.14220 | 116.99341 | 4981 ft | 265 kts | 330° |
| 2026-04-24 07:04 | 32.15752 | 116.98296 | 4802 ft | 246 kts | 330° |
| 2026-04-24 07:04 | 32.17204 | 116.97280 | 4407 ft | 239 kts | 323° |
| 2026-04-24 07:05 | 32.18220 | 116.95886 | 4268 ft | 219 kts | 292° |
| 2026-04-24 07:05 | 32.18544 | 116.94211 | 3993 ft | 206 kts | 264° |
| 2026-04-24 07:05 | 32.18195 | 116.92619 | 3624 ft | 199 kts | 237° |
| 2026-04-24 07:05 | 32.17320 | 116.91403 | 3270 ft | 193 kts | 216° |
| 2026-04-24 07:06 | 32.16302 | 116.90424 | 3101 ft | 180 kts | 217° |
| 2026-04-24 07:06 | 32.15386 | 116.89531 | 3064 ft | 164 kts | 217° |
| 2026-04-24 07:06 | 32.14507 | 116.88744 | 3076 ft | 154 kts | 205° |
| 2026-04-24 07:06 | 32.13537 | 116.88377 | 3059 ft | 143 kts | 184° |
| 2026-04-24 07:07 | 32.12582 | 116.88457 | 2939 ft | 137 kts | 165° |
| 2026-04-24 07:07 | 32.11715 | 116.88927 | 2788 ft | 137 kts | 150° |
| 2026-04-24 07:07 | 32.10077 | 116.90040 | 2453 ft | 136 kts | 151° |
| 2026-04-24 07:08 | 32.09268 | 116.90590 | 2280 ft | 136 kts | 152° |
| 2026-04-24 07:08 | 32.08448 | 116.91146 | 2084 ft | 136 kts | 150° |
| 2026-04-24 07:08 | 32.07625 | 116.91705 | 1914 ft | 137 kts | 151° |
| 2026-04-24 07:08 | 32.06804 | 116.92262 | 1733 ft | 135 kts | 150° |
| 2026-04-24 07:09 | 32.05988 | 116.92815 | 1540 ft | 136 kts | 151° |
| 2026-04-24 07:09 | 32.05177 | 116.93365 | 1372 ft | 133 kts | 151° |
| 2026-04-24 07:09 | 32.04379 | 116.93907 | 1184 ft | 133 kts | 151° |
| 2026-04-24 07:09 | 32.03570 | 116.94459 | 1027 ft | 135 kts | 151° |
| 2026-04-24 07:10 | 32.02754 | 116.95022 | 787 ft | 137 kts | 152° |
| 2026-04-24 07:10 | 32.01920 | 116.95584 | 590 ft | 139 kts | 151° |
| 2026-04-24 07:10 | 32.01080 | 116.96148 | 430 ft | 139 kts | 152° |
| 2026-04-24 07:10 | 32.00247 | 116.96706 | 252 ft | 137 kts | 151° |
| 2026-04-24 07:11 | 31.99481 | 116.97222 | 206 ft | 105 kts | 150° |
| 2026-04-24 07:11 | 31.98959 | 116.97573 | 214 ft | 90 kts | 149° |
| 2026-04-24 07:11 | 31.98190 | 116.98087 | 248 ft | 156 kts | 152° |
| 2026-04-24 07:11 | 31.97148 | 116.98757 | 698 ft | 176 kts | 152° |
| 2026-04-24 07:12 | 31.96148 | 116.99535 | 1287 ft | 182 kts | 129° |
| 2026-04-24 07:12 | 31.95768 | 117.00635 | 2796 ft | 58 kts | 110° |
| 2026-04-24 07:12 | 31.95672 | 117.01105 | 2956 ft | 63 kts | 127° |
| 2026-04-24 07:12 | 31.95275 | 117.01971 | 1014 ft | 199 kts | 119° |
| 2026-04-24 07:13 | 31.94773 | 117.03289 | 2230 ft | 169 kts | 97° |
| 2026-04-24 07:13 | 31.95705 | 117.04387 | 1437 ft | 237 kts | 3° |
| 2026-04-24 07:13 | 31.96554 | 117.02956 | 1474 ft | 239 kts | 284° |
| 2026-04-24 07:13 | 31.97057 | 117.01301 | 1082 ft | 219 kts | 266° |
| 2026-04-24 07:14 | 31.96902 | 116.99625 | 717 ft | 201 kts | 271° |
| 2026-04-24 07:14 | 31.97683 | 116.98428 | 317 ft | 186 kts | 328° |
| 2026-04-24 07:14 | 31.98691 | 116.97752 | 204 ft | 114 kts | 344° |
| 2026-04-24 07:14 | 31.98853 | 116.97540 | 207 ft | 20 kts | 348° |
| 2026-04-24 07:15 | 31.98838 | 116.97474 | 199 ft | 18 kts | 341° |